Detall de PIREP

Printer-friendly versionPDF version

[2013/11/13 11:34:00]
Flight IATA:CT2110
Pilot Number:011
Company ICAO:CAT
Aircraft Type:B738/F
PAX:160
Departing Airport: LEVC
Destination Airport: LEST
Alternate Airport:LEMD
Online: VATSIM
Route:CENTA/N0380F230 A33 PRADO/N0430F350 UN733 FORNO
Flight Level:F330
No Slew and time accel
No pause
Crash detect
Detect pilot in Cockpit between each 30 and 45 minutes
11:34 Zero fuel Weight: 133990 Lbs, Fuel Weight: 16567 Lbs
11:34 VATSIM:LEVC 131100Z 27003KT 240V310 9999 FEW045 21/11 Q1020 NOSIG
11:34 VATSIM:LEST 131100Z 03008KT 350V080 9999 SCT020 BKN025 14/12 Q1030 NOSIG
11:36 Parking Brakes off
11:46 Take-off
11:46 Take off Weight: 149770 Lbs
11:46 Wind: 253º @ 003 Knots Heading: 295º
11:46 POS N39º 29´ 25´´ W000º 29´ 04´´
11:46 Gear Up: 168 Knots
11:46 Flaps:5 at 168 Knots
11:47 Flaps:4 at 193 Knots
11:47 Flaps:3 at 207 Knots
11:47 Flaps:2 at 223 Knots
11:47 Flaps:1 at 225 Knots
11:47 Flaps:0 at 228 Knots
12:00 TOC
12:00 Fuel Weight: 12738 Lb
12:01 Wind:022º@025 Knots Heading: 302º Ground Speed: 407 Knots Altitude 33264 ft
12:16 Wind:041º@048 Knots Heading: 300º Ground Speed: 475 Knots Altitude 33300 ft
12:31 Wind:031º@044 Knots Heading: 311º Ground Speed: 460 Knots Altitude 33336 ft
12:31 TOD
12:31 Fuel Weight: 10014 Lb
12:46 Wind:045º@023 Knots Heading: 340º Ground Speed: 289 Knots Altitude 6315 ft
12:49 Flaps:1 at 233 Knots
12:49 Flaps:2 at 231 Knots
12:49 Flaps:3 at 227 Knots
12:50 Flaps:4 at 202 Knots
12:51 Flaps:5 at 185 Knots
12:51 Flaps:6 at 175 Knots
12:51 Gear Down: 174 Knots
12:52 Flaps:7 at 163 Knots
12:53 Flaps:8 at 154 Knots
12:56 TouchDown:Rate -183 ft/min Speed: 131 Knots
12:56 VATSIM:LEST 131230Z 05012G24KT 020V090 9999 FEW019 BKN027 15/11 Q1030 NOSIG
12:56 Land
12:56 Wind:056º@012 Knots
12:56 Heading: 346º
12:56 Flight Duration: 01:10
12:56 Landing Weight: 142651 Lbs
12:56 POS N42º 54´ 01´´ W008º 24´ 59´´
13:00 Parking brakes on
13:00 Block to Block Duration: 01:24
13:00 Final Fuel: 8322 Lbls
13:00 Spent Fuel: 8245 Lbls
13:00 Flight Length: 325 NM
13:00 TOD Land Length: 114 NM

Exportar CSV

Powered by Drupal - Modified by Danger4k